EDFM Airport Information

Runway Information
Runway 09 Length 3497 ft width 82 ft
Elevation 309 ft Threshold 19 ft Heading 93
Runway 27 Length 3497 ft Width 82 ft
Elevation 306 ft Threshold 174 ft Heading 273
Runway 09L Length 2297 ft width 98 ft
Elevation 0 ft Threshold 246 ft Heading 92
Runway 27R Length 2297 ft Width 98 ft
Elevation 0 ft Threshold 82 ft Heading 272
Airport Frequencies
Type APP Name COLEMAN AP Frequency 130.5 MHZ
Type ATIS Name ATIS Frequency 136.55 MHZ
Type CNTR Name LANGEN RAD Frequency 127.5 MHZ
Type INFO Name INFO Frequency 118.4 MHZ
Type TWR Name TWR Frequency 118.4 MHZ
Type TWR Name COLEMAN TW Frequency 122.1 MHZ
Airport Navaids
Type DME Name Mannheim Frequency 113550 KHZ
Airport Weather Information & NOTAM
ADDS - METARS form results

(1546 UTC 14 June 2021)
Data provider http://aviationweather.gov/metar/data/
 
METAR text: EDFM 141520Z VRB02KT CAVOK 29/09 Q1018
Conditions at: EDFM (MANNHEIM , DE) observed 1520 UTC 14 June 2021
Temperature: 29.0°C (84°F)
Dewpoint: 9.0°C (48°F) [RH = 29%]
Pressure (altimeter): 30.06 inches Hg (1018.0 mb)
Winds: variable direction winds at 2 MPH (2 knots; 1.0 m/s)
Visibility: 6 or more miles (10+ km)
Ceiling: ceiling and visibility are OK
Clouds: unknown
Weather: no significant weather observed at this time

METAR text: EDFM 141450Z VRB03KT CAVOK 28/09 Q1019
Conditions at: EDFM (MANNHEIM , DE) observed 1450 UTC 14 June 2021
Temperature: 28.0°C (82°F)
Dewpoint: 9.0°C (48°F) [RH = 30%]
Pressure (altimeter): 30.09 inches Hg (1019.0 mb)
Winds: variable direction winds at 3 MPH (3 knots; 1.5 m/s)
Visibility: 6 or more miles (10+ km)
Ceiling: ceiling and visibility are OK
Clouds: unknown
Weather: no significant weather observed at this time

Forecast for: EDFM (MANNHEIM , DE)
Text: TAF EDFM 141400Z 1415/1421 05003KT CAVOK
Forecast period: 1500 to 2100 UTC 14 June 2021
Forecast type: FROM: standard forecast or significant change
Winds: from the NE (50 degrees) at 3 MPH (3 knots; 1.5 m/s)
Visibility: 6 or more miles (10+ km)
Ceiling: unknown
Clouds: missing
Weather: NSW  (no significant weather)